Time;durP1;ratioP1;P1;durP2;ratioP2;P2;SDS_P1;SDS_P2;PMS_P1;PMS_P2;Temp;Humidity;BMP_temperature;BMP_pressure;BME280_temperature;BME280_humidity;BME280_pressure;Samples;Min_cycle;Max_cycle;Signal;HPM_P1;HPM_P2
2023/10/10 00:01:30;;;;;;;9.32;2.00;;;26.00;68.60;;;;;;5088683;28;20468;-67
2023/10/10 00:03:59;;;;;;;8.82;2.13;;;26.30;68.20;;;;;;5091952;28;20028;-68
2023/10/10 00:06:28;;;;;;;14.80;2.22;;;26.50;67.00;;;;;;5089825;28;20069;-70
2023/10/10 00:08:55;;;;;;;7.32;1.70;;;26.30;67.00;;;;;;5091757;28;20031;-68
2023/10/10 00:11:24;;;;;;;3.70;1.50;;;27.30;67.00;;;;;;5090528;28;20139;-68
2023/10/10 00:14:04;;;;;;;6.95;1.95;;;27.30;61.80;;;;;;5097390;28;20024;-67
2023/10/10 00:16:40;;;;;;;6.20;1.85;;;27.00;65.80;;;;;;5094948;28;20026;-68
2023/10/10 00:19:20;;;;;;;3.33;1.08;;;27.50;63.10;;;;;;5099884;28;20067;-68
2023/10/10 00:21:50;;;;;;;5.32;1.55;;;27.20;57.80;;;;;;5090795;28;20020;-68
2023/10/10 00:24:22;;;;;;;6.50;1.25;;;26.70;58.70;;;;;;5082165;28;20030;-68
2023/10/10 00:26:50;;;;;;;7.95;1.30;;;26.80;59.60;;;;;;5099851;28;20468;-68
2023/10/10 00:29:26;;;;;;;5.45;1.25;;;27.00;57.00;;;;;;5090745;28;20062;-69
2023/10/10 00:31:56;;;;;;;5.10;1.35;;;27.20;56.00;;;;;;5097471;28;20031;-69
2023/10/10 00:34:33;;;;;;;5.07;1.73;;;27.10;58.80;;;;;;5102239;28;20461;-68
2023/10/10 00:37:07;;;;;;;;;;;26.50;61.10;;;;;;5109214;28;20019;-68
2023/10/10 00:39:36;;;;;;;6.90;1.80;;;25.90;62.50;;;;;;5080453;28;19922;-67
2023/10/10 00:42:19;;;;;;;7.72;1.80;;;25.60;62.30;;;;;;5088942;28;20032;-69
2023/10/10 00:44:48;;;;;;;3.85;1.50;;;25.30;63.60;;;;;;5091471;28;20064;-69
2023/10/10 00:47:16;;;;;;;3.85;1.30;;;25.80;64.10;;;;;;5095767;28;20024;-69
2023/10/10 00:49:45;;;;;;;9.48;1.92;;;26.90;60.60;;;;;;5102717;28;20035;-69
2023/10/10 00:52:16;;;;;;;4.28;1.58;;;27.50;59.20;;;;;;5001271;28;20385;-69
2023/10/10 00:54:45;;;;;;;5.57;1.60;;;27.70;55.40;;;;;;4996104;28;20439;-69
2023/10/10 00:57:14;;;;;;;6.45;1.45;;;28.40;55.20;;;;;;4991091;28;20037;-69
2023/10/10 00:59:45;;;;;;;4.43;1.10;;;28.20;54.60;;;;;;5014762;28;20583;-69
2023/10/10 01:02:20;;;;;;;10.50;1.83;;;28.10;53.50;;;;;;5012908;28;20521;-69
2023/10/10 01:04:55;;;;;;;7.32;1.35;;;28.30;55.50;;;;;;4996405;28;20037;-68
2023/10/10 01:07:26;;;;;;;9.18;1.50;;;28.60;55.00;;;;;;5014742;28;20030;-69
2023/10/10 01:12:39;;;;;;;5.53;1.65;;;29.10;50.40;;;;;;5016331;28;20482;-68
2023/10/10 01:15:16;;;;;;;9.73;1.73;;;29.30;50.40;;;;;;5016656;28;20091;-68
2023/10/10 01:17:45;;;;;;;7.88;1.70;;;29.30;50.00;;;;;;5015151;28;20033;-68
2023/10/10 01:22:46;;;;;;;4.70;2.00;;;29.60;51.70;;;;;;5012950;28;20488;-67
2023/10/10 01:26:05;;;;;;;7.63;1.60;;;29.60;48.90;;;;;;5020965;28;20022;-69
2023/10/10 01:31:18;;;;;;;5.82;1.33;;;29.10;47.20;;;;;;4943088;29;20031;-69
2023/10/10 01:33:49;;;;;;;4.00;1.30;;;29.10;46.50;;;;;;4947040;29;20130;-69
2023/10/10 01:36:19;;;;;;;3.30;1.20;;;29.10;47.00;;;;;;4987469;28;20493;-69
2023/10/10 01:39:07;;;;;;;5.68;1.30;;;29.20;46.20;;;;;;5019322;28;20026;-69
2023/10/10 01:41:41;;;;;;;7.10;1.40;;;29.60;45.80;;;;;;5015629;28;20041;-69
2023/10/10 01:44:11;;;;;;;6.95;1.75;;;29.60;46.70;;;;;;5020808;28;20560;-68
2023/10/10 01:46:42;;;;;;;5.28;1.88;;;29.60;47.70;;;;;;5009874;28;20049;-69
2023/10/10 01:49:13;;;;;;;3.85;1.33;;;28.80;47.90;;;;;;5017315;28;20055;-69
2023/10/10 01:51:43;;;;;;;5.45;1.88;;;28.20;48.10;;;;;;4974938;28;20065;-68
2023/10/10 01:54:17;;;;;;;16.13;2.28;;;27.50;48.30;;;;;;5012165;28;20026;-68
2023/10/10 01:56:45;;;;;;;8.30;1.80;;;27.10;50.50;;;;;;5007501;28;20434;-68
2023/10/10 01:59:25;;;;;;;7.28;1.90;;;26.90;51.00;;;;;;5012211;28;20054;-69
2023/10/10 02:01:54;;;;;;;6.57;1.20;;;27.00;52.10;;;;;;5011254;28;20026;-69
2023/10/10 02:04:30;;;;;;;5.68;1.98;;;27.80;50.80;;;;;;5010593;28;20053;-68
2023/10/10 02:07:04;;;;;;;13.57;2.53;;;28.80;50.70;;;;;;5008306;28;20030;-69
2023/10/10 02:09:35;;;;;;;11.10;2.40;;;29.60;51.40;;;;;;5000802;28;20558;-68
2023/10/10 02:12:36;;;;;;;5.40;2.25;;;29.50;50.60;;;;;;5010065;28;20533;-68
2023/10/10 02:14:56;;;;;;;7.90;2.05;;;29.20;50.10;;;;;;4997774;28;20076;-68
2023/10/10 02:17:26;;;;;;;6.60;2.28;;;29.10;51.80;;;;;;5009894;28;20489;-69
2023/10/10 02:19:59;;;;;;;10.00;2.35;;;29.30;51.60;;;;;;4994657;28;20231;-70
2023/10/10 02:22:33;;;;;;;5.95;1.73;;;29.60;50.00;;;;;;4991509;28;20045;-68
2023/10/10 02:28:04;;;;;;;11.50;2.17;;;28.40;50.70;;;;;;5009697;28;20431;-69
2023/10/10 02:30:37;;;;;;;9.40;2.47;;;27.90;52.70;;;;;;4989964;28;20037;-68
2023/10/10 02:35:54;;;;;;;;;;;27.90;54.60;;;;;;5002449;28;20124;-68
2023/10/10 02:39:18;;;;;;;8.98;2.47;;;28.40;53.30;;;;;;5002833;28;19915;-68
2023/10/10 02:46:37;;;;;;;11.00;1.90;;;29.10;51.10;;;;;;5005983;28;20052;-69
2023/10/10 02:49:36;;;;;;;6.32;1.73;;;29.00;50.40;;;;;;5004069;28;20048;-68
2023/10/10 02:52:07;;;;;;;5.97;2.00;;;29.10;50.20;;;;;;5003397;28;20069;-69
2023/10/10 02:54:43;;;;;;;7.88;2.35;;;29.00;48.20;;;;;;5011004;28;20026;-69
2023/10/10 03:00:29;;;;;;;8.90;2.13;;;28.90;47.80;;;;;;5005588;28;20141;-69
2023/10/10 03:02:53;;;;;;;6.05;1.73;;;29.10;48.90;;;;;;4999406;28;20057;-69
2023/10/10 03:05:43;;;;;;;3.30;1.50;;;29.40;47.10;;;;;;5003659;28;20030;-69
2023/10/10 03:08:18;;;;;;;10.63;2.03;;;29.30;47.30;;;;;;4990059;28;20049;-69
2023/10/10 03:10:54;;;;;;;13.38;2.05;;;29.60;48.00;;;;;;5009172;28;20032;-67
2023/10/10 03:13:37;;;;;;;5.90;1.70;;;29.60;48.40;;;;;;5006421;28;20036;-69
2023/10/10 03:18:55;;;;;;;8.68;1.60;;;30.50;45.70;;;;;;5003479;28;20108;-69
2023/10/10 03:21:43;;;;;;;9.60;1.50;;;30.40;45.20;;;;;;5001127;28;20077;-69
2023/10/10 03:29:49;;;;;;;6.35;1.50;;;30.60;44.00;;;;;;5008213;28;20084;-70
2023/10/10 03:32:31;;;;;;;5.88;1.50;;;30.10;44.90;;;;;;4996261;28;20433;-69
2023/10/10 03:35:06;;;;;;;9.48;1.88;;;30.30;44.80;;;;;;5004128;28;20038;-69
2023/10/10 03:37:54;;;;;;;7.78;1.80;;;30.00;47.80;;;;;;5002307;28;20038;-68
2023/10/10 03:40:26;;;;;;;7.43;1.85;;;29.80;48.00;;;;;;4988223;28;20125;-69
2023/10/10 05:25:23;;;;;;;5.93;1.80;;;25.80;60.10;;;;;;4987180;28;20101;-69
2023/10/10 05:27:58;;;;;;;6.25;1.75;;;25.50;60.90;;;;;;4993645;28;20135;-68
2023/10/10 05:30:27;;;;;;;7.35;2.00;;;25.20;61.70;;;;;;4990465;28;20022;-69
2023/10/10 05:33:01;;;;;;;8.15;1.83;;;25.10;62.20;;;;;;4990919;28;20026;-70
2023/10/10 05:35:38;;;;;;;6.07;1.70;;;25.20;62.10;;;;;;4974776;28;20452;-70
2023/10/10 05:38:09;;;;;;;7.55;1.80;;;24.80;62.40;;;;;;4990489;28;20034;-68
2023/10/10 05:40:38;;;;;;;7.68;1.63;;;24.30;63.30;;;;;;4990020;28;20069;-67
2023/10/10 05:43:25;;;;;;;9.20;2.10;;;24.00;65.40;;;;;;4992262;28;20097;-69
2023/10/10 05:45:56;;;;;;;7.88;1.70;;;23.90;65.00;;;;;;4987994;28;20033;-69
2023/10/10 05:48:25;;;;;;;6.05;1.52;;;23.50;66.30;;;;;;4989977;28;20026;-69
2023/10/10 05:50:53;;;;;;;5.53;1.40;;;23.30;66.80;;;;;;4971261;28;20046;-69
2023/10/10 05:53:21;;;;;;;7.07;1.65;;;23.20;67.50;;;;;;4992521;28;20061;-69
2023/10/10 05:55:51;;;;;;;8.63;1.90;;;23.10;67.50;;;;;;4991409;28;20034;-69
2023/10/10 05:58:18;;;;;;;6.88;1.38;;;23.20;67.30;;;;;;4996109;28;20058;-68
2023/10/10 06:00:48;;;;;;;6.88;1.60;;;23.10;67.30;;;;;;5008426;28;20470;-68
2023/10/10 06:03:21;;;;;;;6.80;1.70;;;22.80;68.10;;;;;;5011913;28;20034;-68
2023/10/10 06:05:49;;;;;;;4.63;1.63;;;22.90;68.70;;;;;;5007977;28;20048;-68
2023/10/10 06:08:17;;;;;;;7.18;1.80;;;22.80;69.20;;;;;;5011560;28;20125;-69
2023/10/10 06:10:45;;;;;;;7.38;1.55;;;22.80;69.50;;;;;;5011027;28;20030;-68
2023/10/10 06:13:12;;;;;;;6.68;1.30;;;22.70;69.90;;;;;;5008432;28;20033;-69
2023/10/10 06:15:40;;;;;;;7.97;1.98;;;22.60;70.40;;;;;;5007278;28;20514;-67
2023/10/10 06:18:18;;;;;;;6.95;1.75;;;22.50;71.10;;;;;;5003375;28;20073;-69
2023/10/10 06:20:47;;;;;;;8.10;1.90;;;22.50;71.30;;;;;;5011656;28;20563;-69
2023/10/10 06:23:15;;;;;;;7.07;1.75;;;22.40;71.20;;;;;;5012223;28;20050;-68
2023/10/10 06:25:43;;;;;;;11.10;1.55;;;22.30;71.90;;;;;;5008290;28;20041;-68
2023/10/10 06:28:23;;;;;;;6.30;1.70;;;22.00;72.70;;;;;;5008791;28;20409;-68
2023/10/10 06:30:54;;;;;;;5.47;2.00;;;21.90;73.40;;;;;;5009460;28;20030;-69
2023/10/10 06:33:33;;;;;;;11.15;2.25;;;21.80;73.70;;;;;;5011228;28;20442;-68
2023/10/10 06:39:18;;;;;;;7.50;1.97;;;21.90;73.20;;;;;;5006447;28;20046;-68
2023/10/10 06:41:40;;;;;;;11.27;1.60;;;21.80;73.40;;;;;;5005679;28;20050;-68
2023/10/10 06:44:14;;;;;;;12.50;2.03;;;21.70;74.20;;;;;;5012257;28;20022;-69
2023/10/10 06:46:48;;;;;;;5.95;1.58;;;21.60;74.80;;;;;;5005650;28;20041;-68
2023/10/10 06:49:18;;;;;;;7.07;1.60;;;21.50;75.20;;;;;;5007245;28;20495;-68
2023/10/10 06:51:46;;;;;;;8.70;1.95;;;21.30;75.60;;;;;;5007307;28;20033;-68
2023/10/10 06:54:27;;;;;;;10.48;2.25;;;21.30;76.30;;;;;;4999755;28;20030;-68
2023/10/10 06:59:29;;;;;;;11.07;2.15;;;21.20;76.60;;;;;;5009268;28;20467;-68
2023/10/10 07:01:59;;;;;;;8.90;1.75;;;21.10;76.80;;;;;;5010822;28;20499;-68
2023/10/10 07:04:35;;;;;;;5.65;1.70;;;21.00;77.00;;;;;;5005790;28;20025;-68
2023/10/10 07:07:05;;;;;;;13.63;2.47;;;21.00;77.30;;;;;;5010785;28;20445;-68
2023/10/10 07:09:37;;;;;;;7.13;1.83;;;21.00;77.20;;;;;;5008008;28;20486;-68
2023/10/10 07:12:10;;;;;;;9.73;1.80;;;21.00;77.10;;;;;;5011357;28;20029;-68
2023/10/10 07:14:46;;;;;;;10.98;2.10;;;20.90;77.70;;;;;;4997446;28;20288;-68
2023/10/10 07:17:14;;;;;;;10.55;1.65;;;20.80;78.20;;;;;;4999056;28;20037;-68
2023/10/10 07:22:33;;;;;;;12.48;2.47;;;20.70;78.40;;;;;;5001977;28;20420;-67
2023/10/10 07:25:07;;;;;;;6.72;1.92;;;20.80;78.60;;;;;;5002110;28;20030;-68
2023/10/10 07:27:41;;;;;;;7.85;2.42;;;20.90;78.10;;;;;;5001746;28;20356;-68
2023/10/10 07:30:16;;;;;;;10.82;2.75;;;20.80;78.60;;;;;;5002281;28;20053;-69
2023/10/10 07:32:44;;;;;;;7.15;2.13;;;20.70;78.70;;;;;;4999411;28;20044;-68
2023/10/10 07:35:15;;;;;;;10.50;1.90;;;20.80;78.50;;;;;;4996847;28;20061;-68
2023/10/10 07:37:47;;;;;;;8.20;2.00;;;20.60;78.70;;;;;;5008679;28;20092;-68
2023/10/10 07:40:28;;;;;;;7.90;2.47;;;20.50;79.30;;;;;;5005277;28;20081;-68
2023/10/10 07:43:03;;;;;;;9.60;2.03;;;20.50;79.60;;;;;;5000860;28;20081;-68
2023/10/10 07:45:34;;;;;;;6.45;1.80;;;20.50;79.70;;;;;;5001640;28;20030;-68
2023/10/10 07:50:55;;;;;;;8.93;2.20;;;20.60;79.40;;;;;;5000823;28;20104;-69
2023/10/10 07:53:34;;;;;;;7.35;2.22;;;20.50;79.50;;;;;;4998493;28;20113;-69
2023/10/10 07:56:01;;;;;;;13.00;2.55;;;20.40;79.70;;;;;;5005998;28;20096;-71
2023/10/10 07:58:49;;;;;;;11.55;3.28;;;20.40;79.20;;;;;;5005066;28;20050;-70
2023/10/10 08:01:16;;;;;;;10.63;2.05;;;20.60;79.80;;;;;;4996301;28;20340;-69
2023/10/10 08:03:46;;;;;;;13.05;8.82;;;21.50;77.60;;;;;;5005273;28;20041;-68
2023/10/10 08:06:25;;;;;;;17.52;10.30;;;22.40;77.30;;;;;;5002760;28;20038;-69
2023/10/10 08:11:38;;;;;;;60.92;54.53;;;23.90;70.60;;;;;;5007330;28;20040;-69
2023/10/10 08:14:07;;;;;;;93.22;83.97;;;25.30;63.40;;;;;;5007495;28;20064;-69
2023/10/10 08:16:37;;;;;;;221.50;201.10;;;26.00;63.30;;;;;;5005921;28;20030;-68
2023/10/10 08:19:05;;;;;;;1190.93;424.23;;;27.70;58.60;;;;;;5001780;28;20076;-70
2023/10/10 08:21:38;;;;;;;897.20;542.08;;;29.70;51.90;;;;;;5006347;28;20046;-70
2023/10/10 08:24:12;;;;;;;35.85;17.85;;;29.50;50.40;;;;;;5003545;28;20475;-68
2023/10/10 08:26:39;;;;;;;898.75;364.08;;;27.70;52.50;;;;;;4988204;28;20502;-69
2023/10/10 08:29:08;;;;;;;50.90;14.50;;;27.20;60.10;;;;;;5004598;28;20054;-69
2023/10/10 08:31:38;;;;;;;41.60;13.00;;;27.40;54.80;;;;;;5003457;28;20073;-68
2023/10/10 08:34:08;;;;;;;189.40;115.20;;;26.80;57.10;;;;;;4999528;28;20378;-71
2023/10/10 08:36:43;;;;;;;121.80;78.40;;;26.50;56.70;;;;;;5008105;28;20076;-69
2023/10/10 08:41:44;;;;;;;1636.72;630.53;;;26.10;55.50;;;;;;5000179;28;20578;-70
2023/10/10 08:44:17;;;;;;;215.75;142.10;;;25.50;59.70;;;;;;4991372;28;20406;-70
2023/10/10 08:46:46;;;;;;;11.07;4.20;;;25.60;60.80;;;;;;5007303;28;20017;-69
2023/10/10 08:49:15;;;;;;;33.88;20.20;;;24.70;62.70;;;;;;5006082;28;20084;-69
2023/10/10 08:51:44;;;;;;;194.05;172.70;;;24.50;61.60;;;;;;4998689;28;20065;-69
2023/10/10 08:54:15;;;;;;;124.78;78.97;;;24.10;67.70;;;;;;4999865;28;20026;-69
2023/10/10 08:56:51;;;;;;;61.88;25.60;;;25.30;63.10;;;;;;5011501;28;20018;-69
2023/10/10 08:59:20;;;;;;;23.63;8.75;;;25.50;61.50;;;;;;5002510;28;20422;-69
2023/10/10 09:01:47;;;;;;;130.52;93.57;;;25.30;61.50;;;;;;4984043;28;20922;-70
2023/10/10 09:04:19;;;;;;;34.50;30.77;;;25.50;62.10;;;;;;5002465;28;20107;-70
2023/10/10 09:09:33;;;;;;;9.60;2.20;;;24.20;61.70;;;;;;5007251;28;20045;-69
2023/10/10 09:12:04;;;;;;;9.45;1.75;;;22.90;65.50;;;;;;4997286;28;20049;-69
2023/10/10 09:15:11;;;;;;;8.85;2.00;;;22.10;68.60;;;;;;5006449;28;20022;-69
2023/10/10 09:17:40;;;;;;;6.70;1.77;;;21.70;71.00;;;;;;5003082;28;20038;-68
2023/10/10 09:20:23;;;;;;;4.55;1.60;;;21.60;71.50;;;;;;5012549;28;20121;-68
2023/10/10 09:23:11;;;;;;;10.52;2.17;;;21.60;72.20;;;;;;5008576;28;20441;-68
2023/10/10 09:25:42;;;;;;;10.23;2.03;;;21.50;73.00;;;;;;5012627;28;20030;-66
2023/10/10 09:28:15;;;;;;;6.72;1.95;;;21.40;74.20;;;;;;5012985;28;20505;-67
2023/10/10 09:30:50;;;;;;;7.05;1.77;;;21.20;74.90;;;;;;5007767;28;20502;-67
2023/10/10 09:33:54;;;;;;;8.90;2.60;;;21.10;76.70;;;;;;5003316;28;20475;-68
2023/10/10 09:36:20;;;;;;;13.10;2.47;;;21.00;78.60;;;;;;5008810;28;20805;-70
2023/10/10 09:38:53;;;;;;;11.60;2.67;;;20.70;80.40;;;;;;5012124;28;20029;-67
2023/10/10 09:52:50;;;;;;;11.48;2.38;;;20.00;86.60;;;;;;4968709;28;20095;-69
2023/10/10 10:00:50;;;;;;;14.88;2.70;;;19.90;88.10;;;;;;4952773;28;20490;-69
2023/10/10 10:03:49;;;;;;;13.75;2.65;;;19.80;88.60;;;;;;5001218;28;20037;-68
2023/10/10 10:06:38;;;;;;;17.85;3.72;;;19.70;88.80;;;;;;5004950;28;20025;-68
2023/10/10 10:09:32;;;;;;;10.07;2.72;;;19.70;89.10;;;;;;4995929;28;20092;-69
2023/10/10 10:12:33;;;;;;;18.30;2.70;;;19.60;89.90;;;;;;4991923;28;20040;-69
2023/10/10 10:15:48;;;;;;;13.63;2.95;;;19.60;89.80;;;;;;4999947;28;20030;-69
2023/10/10 10:18:28;;;;;;;10.80;2.85;;;19.60;90.00;;;;;;4996163;28;20117;-69
2023/10/10 10:21:16;;;;;;;14.20;2.92;;;19.50;90.10;;;;;;4994848;28;20095;-68
2023/10/10 10:23:47;;;;;;;9.65;3.08;;;19.50;90.20;;;;;;5010039;28;20049;-69
2023/10/10 10:26:48;;;;;;;12.35;2.63;;;19.50;90.10;;;;;;5002520;28;20152;-68
2023/10/10 10:29:15;;;;;;;13.98;2.88;;;19.60;90.00;;;;;;5003210;28;20120;-68
2023/10/10 10:32:10;;;;;;;15.48;3.22;;;19.60;90.00;;;;;;5010133;28;20030;-68
2023/10/10 10:34:35;;;;;;;9.85;2.92;;;19.70;90.00;;;;;;5006424;28;20034;-70
2023/10/10 10:37:12;;;;;;;13.57;2.88;;;19.60;90.00;;;;;;5002455;28;20121;-68
2023/10/10 10:42:40;;;;;;;14.48;3.70;;;19.60;90.10;;;;;;4967245;28;20044;-70
2023/10/10 10:45:26;;;;;;;8.07;2.40;;;19.70;90.20;;;;;;5004338;28;20049;-69
2023/10/10 10:48:02;;;;;;;15.75;3.05;;;19.60;90.10;;;;;;5007537;28;20117;-68
2023/10/10 10:50:29;;;;;;;9.43;3.00;;;19.70;90.10;;;;;;5007968;28;20040;-68
2023/10/10 10:53:08;;;;;;;11.60;2.95;;;19.70;90.20;;;;;;5008536;28;20033;-67
2023/10/10 10:55:40;;;;;;;16.35;2.97;;;19.60;90.00;;;;;;5002478;28;20407;-68
2023/10/10 10:58:20;;;;;;;9.32;2.97;;;19.60;90.40;;;;;;5002853;28;20038;-69
2023/10/10 11:01:07;;;;;;;18.58;3.88;;;19.60;90.30;;;;;;4982873;28;20045;-69
2023/10/10 11:03:38;;;;;;;16.85;2.95;;;19.70;90.20;;;;;;4984164;28;20026;-67
2023/10/10 11:06:07;;;;;;;10.77;2.97;;;19.70;90.10;;;;;;5004632;28;20052;-68
2023/10/10 11:16:46;;;;;;;11.93;2.90;;;19.60;90.30;;;;;;5009374;28;20036;-67
2023/10/10 11:22:00;;;;;;;9.20;2.85;;;19.50;90.90;;;;;;5007698;28;20470;-68
2023/10/10 11:24:29;;;;;;;10.35;2.80;;;19.50;90.70;;;;;;5001815;28;20030;-67
2023/10/10 11:29:32;;;;;;;9.40;2.80;;;19.50;90.60;;;;;;5008985;28;20034;-68
2023/10/10 11:32:08;;;;;;;11.18;3.20;;;19.40;90.80;;;;;;4991659;28;20419;-67
2023/10/10 11:34:45;;;;;;;12.52;3.50;;;19.40;90.90;;;;;;5003523;28;20463;-67
2023/10/10 11:37:26;;;;;;;14.57;2.80;;;19.40;90.90;;;;;;5008151;28;20026;-68
2023/10/10 11:42:50;;;;;;;14.73;3.03;;;19.50;90.70;;;;;;5002618;28;20030;-68
2023/10/10 11:45:19;;;;;;;14.10;2.97;;;19.60;90.50;;;;;;5010403;28;20022;-67
2023/10/10 11:47:47;;;;;;;10.63;2.88;;;19.60;90.40;;;;;;5007419;28;20117;-68
2023/10/10 11:50:17;;;;;;;10.80;3.20;;;19.60;90.40;;;;;;5007334;28;20084;-68
2023/10/10 11:53:00;;;;;;;13.48;3.10;;;19.50;90.70;;;;;;5003781;28;20479;-68
2023/10/10 11:55:28;;;;;;;10.48;2.80;;;19.50;90.70;;;;;;5006502;28;20509;-68
2023/10/10 11:58:06;;;;;;;9.15;3.22;;;19.40;90.80;;;;;;4997683;28;20048;-68
2023/10/10 12:00:42;;;;;;;;;;;19.30;91.10;;;;;;5006786;28;20518;-67
2023/10/10 12:03:13;;;;;;;9.65;3.13;;;19.40;90.80;;;;;;5006467;28;19913;-68
2023/10/10 12:05:49;;;;;;;12.07;3.13;;;19.40;90.80;;;;;;5000651;28;20703;-70
2023/10/10 12:08:27;;;;;;;9.48;3.05;;;19.40;90.90;;;;;;5001116;28;20030;-69
2023/10/10 12:11:12;;;;;;;10.15;2.85;;;19.40;90.80;;;;;;5006554;28;20061;-70
2023/10/10 12:13:41;;;;;;;9.35;2.80;;;19.40;90.80;;;;;;5008114;28;20032;-67
2023/10/10 12:16:10;;;;;;;8.98;2.55;;;19.20;91.10;;;;;;5007741;28;20042;-66
2023/10/10 12:19:12;;;;;;;13.68;3.35;;;19.30;91.20;;;;;;5005941;28;20027;-67
2023/10/10 12:21:32;;;;;;;8.85;2.78;;;19.40;91.00;;;;;;4994509;28;20053;-68
2023/10/10 12:24:00;;;;;;;11.35;3.53;;;19.40;90.90;;;;;;4998483;28;20321;-67
2023/10/10 12:26:29;;;;;;;12.13;3.15;;;19.30;91.10;;;;;;5003566;28;20030;-68
2023/10/10 12:28:56;;;;;;;12.27;3.38;;;19.40;90.80;;;;;;4985920;28;20038;-67
2023/10/10 12:31:23;;;;;;;9.10;3.15;;;19.40;90.80;;;;;;5004586;28;20025;-67
2023/10/10 12:33:54;;;;;;;12.80;3.08;;;19.50;90.90;;;;;;5005524;28;20026;-68
2023/10/10 12:36:28;;;;;;;10.95;2.95;;;19.40;90.90;;;;;;5000252;28;20501;-68
2023/10/10 12:38:58;;;;;;;12.15;3.33;;;19.50;90.70;;;;;;5001598;28;20446;-68
2023/10/10 12:41:26;;;;;;;10.93;2.85;;;19.50;90.50;;;;;;5007376;28;20048;-67
2023/10/10 12:43:53;;;;;;;11.02;2.90;;;19.50;90.60;;;;;;5007661;28;20053;-68
2023/10/10 12:46:21;;;;;;;13.40;3.10;;;19.40;90.70;;;;;;5010716;28;20053;-66
2023/10/10 12:48:51;;;;;;;9.77;3.03;;;19.50;90.70;;;;;;5010214;28;20441;-68
2023/10/10 12:51:22;;;;;;;11.63;3.08;;;19.40;90.80;;;;;;5010156;28;20023;-68
2023/10/10 12:53:49;;;;;;;11.02;3.35;;;19.30;90.90;;;;;;5007581;28;20065;-68
2023/10/10 12:56:17;;;;;;;7.05;2.92;;;19.00;91.40;;;;;;5002357;28;20021;-67
2023/10/10 12:58:57;;;;;;;5.78;2.90;;;19.20;91.30;;;;;;5009345;28;20037;-68
2023/10/10 13:01:25;;;;;;;7.30;3.03;;;19.20;91.10;;;;;;5010161;28;20045;-68
2023/10/10 13:03:53;;;;;;;9.48;3.40;;;19.20;91.20;;;;;;5004212;28;20056;-68
2023/10/10 13:06:23;;;;;;;8.93;3.28;;;19.20;91.20;;;;;;5011791;28;20021;-66
2023/10/10 13:09:14;;;;;;;8.80;2.70;;;19.10;91.10;;;;;;4990838;28;20056;-67
2023/10/10 13:11:43;;;;;;;10.95;3.40;;;19.00;91.60;;;;;;5006047;28;20501;-68
2023/10/10 13:14:24;;;;;;;6.55;2.90;;;19.00;91.70;;;;;;4992668;28;20096;-68
2023/10/10 13:17:13;;;;;;;10.02;3.20;;;19.00;91.50;;;;;;5010012;28;20070;-66
2023/10/10 13:19:41;;;;;;;9.73;2.78;;;19.00;91.60;;;;;;5009759;28;20026;-67
2023/10/10 13:22:20;;;;;;;9.70;3.00;;;19.00;91.60;;;;;;5008492;28;20398;-68
2023/10/10 13:24:50;;;;;;;10.32;3.28;;;19.10;91.50;;;;;;5012305;28;20025;-69
2023/10/10 13:27:21;;;;;;;9.90;3.33;;;19.10;91.30;;;;;;4993717;28;20437;-68
2023/10/10 13:29:49;;;;;;;11.15;2.85;;;19.30;91.10;;;;;;5010374;28;20030;-68
2023/10/10 13:32:16;;;;;;;8.75;3.08;;;19.20;90.90;;;;;;5012140;28;20092;-68
2023/10/10 13:34:45;;;;;;;12.88;2.92;;;19.00;91.30;;;;;;5009327;28;20025;-67
2023/10/10 13:37:13;;;;;;;12.85;3.13;;;18.90;91.60;;;;;;5010772;28;20026;-68
2023/10/10 13:39:43;;;;;;;9.55;2.80;;;18.80;91.70;;;;;;5009088;28;20040;-67
2023/10/10 13:42:15;;;;;;;6.93;2.65;;;19.10;91.50;;;;;;4994365;28;20129;-69
2023/10/10 13:44:42;;;;;;;9.98;3.15;;;19.20;91.10;;;;;;5009467;28;20022;-69
2023/10/10 13:47:10;;;;;;;11.90;3.47;;;19.10;91.30;;;;;;5005604;28;20041;-69
2023/10/10 13:49:44;;;;;;;8.40;2.55;;;19.00;91.50;;;;;;5010161;28;20026;-68
2023/10/10 13:52:14;;;;;;;6.65;3.00;;;18.90;91.70;;;;;;4986235;28;20445;-69
2023/10/10 13:54:42;;;;;;;6.63;3.10;;;18.90;91.80;;;;;;5006646;28;20041;-69
2023/10/10 13:57:09;;;;;;;8.68;3.22;;;18.80;92.00;;;;;;5008512;28;20039;-69
2023/10/10 13:59:37;;;;;;;13.95;3.88;;;18.70;92.00;;;;;;5009936;28;20042;-69
2023/10/10 14:02:10;;;;;;;10.25;2.83;;;18.70;92.10;;;;;;5002060;28;20037;-69
2023/10/10 14:04:48;;;;;;;7.47;2.72;;;18.80;92.20;;;;;;5010660;28;20026;-68
2023/10/10 14:07:18;;;;;;;9.52;3.03;;;18.80;91.90;;;;;;5011272;28;20108;-69
2023/10/10 14:09:49;;;;;;;7.75;3.13;;;18.80;92.00;;;;;;5007185;28;20033;-68
2023/10/10 14:12:20;;;;;;;10.48;3.03;;;18.70;92.10;;;;;;5004582;28;20026;-69
2023/10/10 14:14:48;;;;;;;10.43;2.67;;;18.60;92.30;;;;;;5001167;28;20391;-68
2023/10/10 14:17:15;;;;;;;9.23;3.92;;;18.60;92.40;;;;;;5009227;28;20036;-68
2023/10/10 14:19:43;;;;;;;13.10;3.28;;;18.50;92.60;;;;;;5006973;28;20064;-69
2023/10/10 14:22:12;;;;;;;14.05;3.33;;;18.50;92.70;;;;;;5005185;28;20478;-69
2023/10/10 14:24:40;;;;;;;6.55;3.03;;;18.40;92.70;;;;;;5007875;28;20032;-70
2023/10/10 14:27:10;;;;;;;9.32;3.30;;;18.40;93.10;;;;;;5005242;28;20038;-68
2023/10/10 14:29:43;;;;;;;14.63;3.33;;;18.40;93.00;;;;;;5008033;28;20092;-68
2023/10/10 14:32:11;;;;;;;9.48;2.88;;;18.40;93.00;;;;;;5007396;28;20015;-69
2023/10/10 14:34:38;;;;;;;13.32;3.00;;;18.40;93.00;;;;;;5003151;28;20228;-69
2023/10/10 14:37:06;;;;;;;13.23;3.58;;;18.40;93.00;;;;;;5005123;28;20029;-68
2023/10/10 14:39:44;;;;;;;7.93;3.13;;;18.40;92.90;;;;;;4990904;28;20057;-68
2023/10/10 14:42:14;;;;;;;;;;;18.40;92.90;;;;;;5009600;28;20076;-67
2023/10/10 14:44:44;;;;;;;16.60;3.85;;;18.40;92.70;;;;;;5012153;28;19913;-67
2023/10/10 14:47:20;;;;;;;14.38;3.50;;;18.40;92.90;;;;;;5006045;28;20053;-68
2023/10/10 14:49:50;;;;;;;10.38;3.28;;;18.30;93.00;;;;;;5011559;28;20030;-68
2023/10/10 14:52:19;;;;;;;11.23;3.03;;;18.20;93.20;;;;;;5010267;28;20085;-66
2023/10/10 14:54:49;;;;;;;13.55;3.20;;;18.10;93.30;;;;;;5006639;28;20022;-67
2023/10/10 14:57:29;;;;;;;14.98;3.63;;;18.10;93.40;;;;;;5010585;28;20029;-68
2023/10/10 14:59:56;;;;;;;8.25;3.40;;;18.10;93.50;;;;;;5011303;28;20050;-68
2023/10/10 15:02:35;;;;;;;13.68;3.45;;;17.90;93.70;;;;;;5003731;28;20058;-68
2023/10/10 15:05:09;;;;;;;12.43;3.15;;;18.00;93.80;;;;;;5009692;28;20061;-68
2023/10/10 15:07:41;;;;;;;12.95;3.42;;;18.00;93.80;;;;;;5003382;28;20069;-67
2023/10/10 15:10:10;;;;;;;14.40;3.47;;;18.00;94.00;;;;;;5001611;28;20053;-67
2023/10/10 15:12:38;;;;;;;14.07;3.85;;;17.90;94.10;;;;;;5000574;28;20022;-68
2023/10/10 15:15:08;;;;;;;13.10;4.07;;;17.90;94.20;;;;;;4999864;28;20030;-68
2023/10/10 15:17:37;;;;;;;14.80;3.83;;;17.90;94.30;;;;;;4999086;28;20526;-69
2023/10/10 15:20:12;;;;;;;13.55;4.32;;;17.80;94.30;;;;;;5009033;28;20046;-68
2023/10/10 15:22:51;;;;;;;9.75;3.90;;;17.80;94.40;;;;;;5011192;28;20030;-68
2023/10/10 15:25:19;;;;;;;15.30;3.83;;;17.80;94.60;;;;;;4993588;28;20034;-68
2023/10/10 15:27:46;;;;;;;8.75;3.72;;;17.70;94.70;;;;;;5008918;28;20022;-68
2023/10/10 15:30:17;;;;;;;16.05;4.28;;;17.70;94.80;;;;;;4990504;28;20037;-67
2023/10/10 15:32:47;;;;;;;8.52;3.38;;;17.70;95.00;;;;;;5008916;28;20026;-69
2023/10/10 15:35:19;;;;;;;9.95;4.32;;;17.70;95.00;;;;;;5008583;28;20093;-68
2023/10/10 15:37:52;;;;;;;13.10;4.60;;;17.70;95.30;;;;;;5006479;28;20126;-69
2023/10/10 15:40:22;;;;;;;12.93;3.40;;;17.70;95.20;;;;;;5004368;28;20045;-68
2023/10/10 15:42:53;;;;;;;14.50;3.60;;;17.70;95.20;;;;;;5005640;28;20053;-67
2023/10/10 15:45:20;;;;;;;11.02;3.22;;;17.60;95.30;;;;;;5006738;28;20026;-68
2023/10/10 15:47:49;;;;;;;6.90;3.00;;;17.60;95.60;;;;;;5012903;28;20077;-68
2023/10/10 15:50:23;;;;;;;10.30;3.50;;;17.50;95.70;;;;;;5006876;28;20027;-68
2023/10/10 15:52:54;;;;;;;12.95;3.30;;;17.60;95.70;;;;;;4993978;28;20034;-68
2023/10/10 15:55:24;;;;;;;9.55;3.60;;;17.50;95.80;;;;;;5008901;28;20018;-68
2023/10/10 15:57:54;;;;;;;10.43;3.60;;;17.60;95.80;;;;;;5011257;28;21474;-69
2023/10/10 16:00:35;;;;;;;14.30;3.83;;;17.60;95.80;;;;;;5007755;28;20137;-68
2023/10/10 16:03:08;;;;;;;17.35;4.75;;;17.50;95.90;;;;;;5006290;28;20131;-68
2023/10/10 16:05:42;;;;;;;12.95;3.60;;;17.40;96.00;;;;;;5008747;28;20030;-67
2023/10/10 16:08:10;;;;;;;12.38;3.90;;;17.40;96.00;;;;;;5008692;28;20025;-68
2023/10/10 16:10:46;;;;;;;11.18;3.83;;;17.30;96.10;;;;;;5005198;28;20133;-68
2023/10/10 16:13:18;;;;;;;18.27;4.23;;;17.20;96.40;;;;;;4992695;28;20451;-68
2023/10/10 16:15:46;;;;;;;11.38;3.45;;;17.10;96.60;;;;;;5008467;28;20293;-68
2023/10/10 16:18:16;;;;;;;16.17;3.78;;;17.00;96.70;;;;;;5011183;28;20036;-68
2023/10/10 16:20:47;;;;;;;10.48;3.72;;;17.00;96.90;;;;;;5009915;28;20094;-68
2023/10/10 16:23:16;;;;;;;7.53;3.90;;;16.90;96.90;;;;;;5009491;28;20387;-68